EGNSEGOW

Guest
Details From EGNS - Isle Of Man Ronaldsway
To EGOW - RAF Woodvale
Flight Number -
Tags generated
Created
Modified
Stats Distance 64 nm / 119 km
Max Altitude 5,000 ft / 1,524 m
Waypoints 3
Social Downloads 0
Likes 0
Share VATSIM

Download

Looking for another format? Having issues loading an existing format? Contact us
Advertisement - Login to hide

Notes

Basic altitude profile: - Ascent Rate: 600ft/min - Ascent Speed: 80kts - Cruise Altitude: 5000ft - Cruise Speed: 110kts - Descent Rate: 1000ft/min - Descent Speed: 110kts Options: - Use NATs: no - Use PACOTS: no - Use low airways: no - Use high airways: yes

Route

EGNS KELLY EGOW

ID Type Via Altitude Latitude Longitude Leg Dist Tot Dist Heading (true) Name
O EGNS APT - 0 ft / 0 m 54.08283˚ -4.62548˚ - 0 nm - Isle Of Man Ronaldsway
KELLY FIX - 5,000 ft / 1,524 m 53.90528˚ -4.36417˚ 14 nm 14 nm 139° / 139° -
O EGOW APT - 0 ft / 0 m 53.58103˚ -3.05699˚ 50 nm 64 nm 112° / 113° RAF Woodvale

Altitude Profile

Advertisement - Login to hide

EGNS

Details ICAO EGNS (IOM)
Name Isle Of Man Ronaldsway
Region United Kingdom
Timezone Europe/Isle_of_Man (UTC+0.0)
Stats Elevation 52 ft / 16 m (AMSL)
Location 54.082833° -4.625475°
Runways 2
Magnetic Variation 2.489° W

METAR

EGNS 121220Z 23012KT 9999 FEW019 07/03 Q1004 NOSIG

Decode

TAF

Not found

Departure Runways

ID Width Length Bearing (true) Bearing (mag) Surface Threshold Offset Overrun Length
03 151 ft / 46 m 4,113 ft / 1,254 m 27.91° 30.40° Asphalt 492 ft / 150 m 0 ft / 0 m
08 151 ft / 46 m 6,016 ft / 1,834 m 77.93° 80.42° Asphalt 545 ft / 166 m 0 ft / 0 m
21 151 ft / 46 m 4,113 ft / 1,254 m 207.92° 210.41° Asphalt 0 ft / 0 m 0 ft / 0 m
26 151 ft / 46 m 6,016 ft / 1,834 m 257.95° 260.44° Asphalt 486 ft / 148 m 0 ft / 0 m

EGOW

Details ICAO EGOW
Name RAF Woodvale
Region United Kingdom
Timezone Europe/London (UTC+0.0)
Stats Elevation 37 ft / 11 m (AMSL)
Location 53.581027° -3.056995°
Runways 3
Magnetic Variation 1.792° W

METAR

EGOW 121150Z 15007KT 9999 FEW020 00/M01 Q1006 BLU

Decode

TAF

Not found

Destination Runways

ID Width Length Bearing (true) Bearing (mag) Surface Threshold Offset Overrun Length
03 151 ft / 46 m 5,410 ft / 1,649 m 30.24° 32.03° Asphalt 0 ft / 0 m 0 ft / 0 m
08 151 ft / 46 m 3,396 ft / 1,035 m 80.38° 82.17° Asphalt 827 ft / 252 m 0 ft / 0 m
15 151 ft / 46 m 2,904 ft / 885 m 159.32° 161.11° Asphalt 1,178 ft / 359 m 0 ft / 0 m
21 151 ft / 46 m 5,410 ft / 1,649 m 210.25° 212.04° Asphalt 0 ft / 0 m 0 ft / 0 m
26 151 ft / 46 m 3,396 ft / 1,035 m 260.40° 262.19° Asphalt 407 ft / 124 m 0 ft / 0 m
33 151 ft / 46 m 2,904 ft / 885 m 339.32° 341.11° Asphalt 69 ft / 21 m 0 ft / 0 m